sensor_id;sensor_type;location;lat;lon;timestamp;P1;durP1;ratioP1;P2;durP2;ratioP2
14984;SDS011;7588;62.368;25.902;2023-03-19T00:00:11;10.33;;;9.20;;
14984;SDS011;7588;62.368;25.902;2023-03-19T00:02:37;8.83;;;7.73;;
14984;SDS011;7588;62.368;25.902;2023-03-19T00:05:03;7.93;;;7.13;;
14984;SDS011;7588;62.368;25.902;2023-03-19T00:07:30;10.07;;;8.80;;
14984;SDS011;7588;62.368;25.902;2023-03-19T00:09:55;9.27;;;8.10;;
14984;SDS011;7588;62.368;25.902;2023-03-19T00:12:21;9.33;;;8.07;;
14984;SDS011;7588;62.368;25.902;2023-03-19T00:14:47;8.80;;;7.90;;
14984;SDS011;7588;62.368;25.902;2023-03-19T00:17:13;11.00;;;9.17;;
14984;SDS011;7588;62.368;25.902;2023-03-19T00:19:39;8.33;;;7.60;;
14984;SDS011;7588;62.368;25.902;2023-03-19T00:22:05;10.57;;;8.90;;
14984;SDS011;7588;62.368;25.902;2023-03-19T00:24:31;10.23;;;8.33;;
14984;SDS011;7588;62.368;25.902;2023-03-19T00:26:57;9.03;;;8.13;;
14984;SDS011;7588;62.368;25.902;2023-03-19T00:29:22;9.97;;;8.97;;
14984;SDS011;7588;62.368;25.902;2023-03-19T00:31:48;8.97;;;8.00;;
14984;SDS011;7588;62.368;25.902;2023-03-19T00:34:14;8.97;;;8.07;;
14984;SDS011;7588;62.368;25.902;2023-03-19T00:36:42;10.00;;;7.50;;
14984;SDS011;7588;62.368;25.902;2023-03-19T00:39:09;8.03;;;7.23;;
14984;SDS011;7588;62.368;25.902;2023-03-19T00:41:34;7.93;;;7.17;;
14984;SDS011;7588;62.368;25.902;2023-03-19T00:44:01;9.53;;;8.53;;
14984;SDS011;7588;62.368;25.902;2023-03-19T00:46:27;9.33;;;7.80;;
14984;SDS011;7588;62.368;25.902;2023-03-19T00:48:53;8.30;;;7.50;;
14984;SDS011;7588;62.368;25.902;2023-03-19T00:51:20;8.67;;;7.87;;
14984;SDS011;7588;62.368;25.902;2023-03-19T00:53:47;8.53;;;7.63;;
14984;SDS011;7588;62.368;25.902;2023-03-19T00:56:14;7.50;;;6.80;;
14984;SDS011;7588;62.368;25.902;2023-03-19T00:58:42;7.70;;;6.90;;
14984;SDS011;7588;62.368;25.902;2023-03-19T01:01:09;7.30;;;6.60;;
14984;SDS011;7588;62.368;25.902;2023-03-19T01:03:36;7.37;;;6.67;;
14984;SDS011;7588;62.368;25.902;2023-03-19T01:06:02;7.00;;;6.30;;
14984;SDS011;7588;62.368;25.902;2023-03-19T01:08:29;7.90;;;7.20;;
14984;SDS011;7588;62.368;25.902;2023-03-19T01:10:55;6.93;;;6.03;;
14984;SDS011;7588;62.368;25.902;2023-03-19T01:13:21;6.70;;;6.10;;
14984;SDS011;7588;62.368;25.902;2023-03-19T01:15:50;7.73;;;7.03;;
14984;SDS011;7588;62.368;25.902;2023-03-19T01:18:17;8.17;;;7.37;;
14984;SDS011;7588;62.368;25.902;2023-03-19T01:20:43;6.57;;;5.83;;
14984;SDS011;7588;62.368;25.902;2023-03-19T01:23:08;6.93;;;6.23;;
14984;SDS011;7588;62.368;25.902;2023-03-19T01:25:34;7.30;;;6.70;;
14984;SDS011;7588;62.368;25.902;2023-03-19T01:28:00;6.80;;;6.20;;
14984;SDS011;7588;62.368;25.902;2023-03-19T01:30:26;6.60;;;6.00;;
14984;SDS011;7588;62.368;25.902;2023-03-19T01:32:52;7.07;;;6.37;;
14984;SDS011;7588;62.368;25.902;2023-03-19T01:35:17;6.27;;;5.67;;
14984;SDS011;7588;62.368;25.902;2023-03-19T01:37:43;6.50;;;5.90;;
14984;SDS011;7588;62.368;25.902;2023-03-19T01:40:10;6.00;;;5.40;;
14984;SDS011;7588;62.368;25.902;2023-03-19T01:42:51;6.30;;;5.70;;
14984;SDS011;7588;62.368;25.902;2023-03-19T01:45:36;6.43;;;5.83;;
14984;SDS011;7588;62.368;25.902;2023-03-19T01:48:03;5.77;;;5.20;;
14984;SDS011;7588;62.368;25.902;2023-03-19T01:50:41;5.80;;;5.20;;
14984;SDS011;7588;62.368;25.902;2023-03-19T01:53:09;5.93;;;5.33;;
14984;SDS011;7588;62.368;25.902;2023-03-19T01:55:37;5.90;;;5.30;;
14984;SDS011;7588;62.368;25.902;2023-03-19T01:58:04;6.83;;;5.50;;
14984;SDS011;7588;62.368;25.902;2023-03-19T02:00:31;6.23;;;5.63;;
14984;SDS011;7588;62.368;25.902;2023-03-19T02:03:02;6.57;;;5.97;;
14984;SDS011;7588;62.368;25.902;2023-03-19T02:05:28;5.87;;;5.27;;
14984;SDS011;7588;62.368;25.902;2023-03-19T02:07:55;5.60;;;5.07;;
14984;SDS011;7588;62.368;25.902;2023-03-19T02:10:24;5.63;;;5.10;;
14984;SDS011;7588;62.368;25.902;2023-03-19T02:12:51;5.83;;;5.30;;
14984;SDS011;7588;62.368;25.902;2023-03-19T02:15:17;4.60;;;4.20;;
14984;SDS011;7588;62.368;25.902;2023-03-19T02:17:43;5.03;;;4.60;;
14984;SDS011;7588;62.368;25.902;2023-03-19T02:25:34;5.87;;;5.33;;
14984;SDS011;7588;62.368;25.902;2023-03-19T02:28:16;5.00;;;4.50;;
14984;SDS011;7588;62.368;25.902;2023-03-19T02:30:45;4.83;;;4.43;;
14984;SDS011;7588;62.368;25.902;2023-03-19T02:33:15;4.30;;;4.00;;
14984;SDS011;7588;62.368;25.902;2023-03-19T02:35:42;6.23;;;5.27;;
14984;SDS011;7588;62.368;25.902;2023-03-19T02:38:13;4.60;;;4.27;;
14984;SDS011;7588;62.368;25.902;2023-03-19T02:40:50;5.27;;;4.17;;
14984;SDS011;7588;62.368;25.902;2023-03-19T02:43:20;5.40;;;4.90;;
14984;SDS011;7588;62.368;25.902;2023-03-19T02:45:46;5.07;;;4.57;;
14984;SDS011;7588;62.368;25.902;2023-03-19T02:48:12;5.17;;;4.70;;
14984;SDS011;7588;62.368;25.902;2023-03-19T02:50:38;5.67;;;5.17;;
14984;SDS011;7588;62.368;25.902;2023-03-19T02:53:03;4.83;;;4.33;;
14984;SDS011;7588;62.368;25.902;2023-03-19T02:55:29;5.00;;;4.60;;
14984;SDS011;7588;62.368;25.902;2023-03-19T02:57:55;5.07;;;4.67;;
14984;SDS011;7588;62.368;25.902;2023-03-19T03:00:20;5.37;;;4.17;;
14984;SDS011;7588;62.368;25.902;2023-03-19T03:02:46;5.97;;;4.93;;
14984;SDS011;7588;62.368;25.902;2023-03-19T03:05:12;5.10;;;4.60;;
14984;SDS011;7588;62.368;25.902;2023-03-19T03:07:38;4.57;;;4.17;;
14984;SDS011;7588;62.368;25.902;2023-03-19T03:10:05;5.20;;;4.70;;
14984;SDS011;7588;62.368;25.902;2023-03-19T03:12:32;5.90;;;5.27;;
14984;SDS011;7588;62.368;25.902;2023-03-19T03:14:57;8.47;;;5.80;;
14984;SDS011;7588;62.368;25.902;2023-03-19T03:17:23;5.20;;;4.70;;
14984;SDS011;7588;62.368;25.902;2023-03-19T03:19:49;5.53;;;5.03;;
14984;SDS011;7588;62.368;25.902;2023-03-19T03:22:15;4.97;;;4.43;;
14984;SDS011;7588;62.368;25.902;2023-03-19T03:24:40;4.87;;;4.43;;
14984;SDS011;7588;62.368;25.902;2023-03-19T03:27:06;5.53;;;5.03;;
14984;SDS011;7588;62.368;25.902;2023-03-19T03:29:32;4.57;;;4.17;;
14984;SDS011;7588;62.368;25.902;2023-03-19T03:31:58;4.50;;;4.10;;
14984;SDS011;7588;62.368;25.902;2023-03-19T03:34:24;4.90;;;4.43;;
14984;SDS011;7588;62.368;25.902;2023-03-19T03:36:49;5.03;;;4.63;;
14984;SDS011;7588;62.368;25.902;2023-03-19T03:39:16;5.13;;;4.73;;
14984;SDS011;7588;62.368;25.902;2023-03-19T03:41:43;5.30;;;4.77;;
14984;SDS011;7588;62.368;25.902;2023-03-19T03:44:09;6.00;;;5.30;;
14984;SDS011;7588;62.368;25.902;2023-03-19T03:46:34;5.53;;;5.03;;
14984;SDS011;7588;62.368;25.902;2023-03-19T03:49:00;4.50;;;4.17;;
14984;SDS011;7588;62.368;25.902;2023-03-19T03:51:26;5.03;;;4.63;;
14984;SDS011;7588;62.368;25.902;2023-03-19T03:53:52;4.33;;;3.93;;
14984;SDS011;7588;62.368;25.902;2023-03-19T03:56:18;4.37;;;3.97;;
14984;SDS011;7588;62.368;25.902;2023-03-19T03:58:43;5.10;;;4.60;;
14984;SDS011;7588;62.368;25.902;2023-03-19T04:01:13;4.87;;;4.40;;
14984;SDS011;7588;62.368;25.902;2023-03-19T04:03:40;5.37;;;4.90;;
14984;SDS011;7588;62.368;25.902;2023-03-19T04:06:06;5.37;;;4.87;;
14984;SDS011;7588;62.368;25.902;2023-03-19T04:08:31;4.50;;;4.10;;
14984;SDS011;7588;62.368;25.902;2023-03-19T04:10:57;5.37;;;4.97;;
14984;SDS011;7588;62.368;25.902;2023-03-19T04:13:23;5.57;;;5.07;;
14984;SDS011;7588;62.368;25.902;2023-03-19T04:15:49;4.07;;;3.77;;
14984;SDS011;7588;62.368;25.902;2023-03-19T04:18:15;4.80;;;4.20;;
14984;SDS011;7588;62.368;25.902;2023-03-19T04:20:40;4.40;;;4.00;;
14984;SDS011;7588;62.368;25.902;2023-03-19T04:23:07;4.80;;;4.40;;
14984;SDS011;7588;62.368;25.902;2023-03-19T04:25:32;4.00;;;3.70;;
14984;SDS011;7588;62.368;25.902;2023-03-19T04:27:58;3.70;;;3.40;;
14984;SDS011;7588;62.368;25.902;2023-03-19T04:30:24;4.50;;;4.10;;
14984;SDS011;7588;62.368;25.902;2023-03-19T04:32:49;4.27;;;3.90;;
14984;SDS011;7588;62.368;25.902;2023-03-19T04:35:15;5.30;;;3.87;;
14984;SDS011;7588;62.368;25.902;2023-03-19T04:37:42;4.67;;;4.27;;
14984;SDS011;7588;62.368;25.902;2023-03-19T04:40:12;4.50;;;4.10;;
14984;SDS011;7588;62.368;25.902;2023-03-19T04:42:39;4.07;;;3.67;;
14984;SDS011;7588;62.368;25.902;2023-03-19T04:45:05;3.80;;;3.50;;
14984;SDS011;7588;62.368;25.902;2023-03-19T04:47:31;4.43;;;4.07;;
14984;SDS011;7588;62.368;25.902;2023-03-19T04:49:57;4.60;;;4.20;;
14984;SDS011;7588;62.368;25.902;2023-03-19T04:52:23;5.00;;;4.50;;
14984;SDS011;7588;62.368;25.902;2023-03-19T04:54:48;4.20;;;3.90;;
14984;SDS011;7588;62.368;25.902;2023-03-19T04:57:14;5.17;;;4.77;;
14984;SDS011;7588;62.368;25.902;2023-03-19T04:59:40;5.07;;;4.67;;
14984;SDS011;7588;62.368;25.902;2023-03-19T05:02:06;5.70;;;4.67;;
14984;SDS011;7588;62.368;25.902;2023-03-19T05:04:32;4.53;;;4.10;;
14984;SDS011;7588;62.368;25.902;2023-03-19T05:06:58;4.87;;;4.47;;
14984;SDS011;7588;62.368;25.902;2023-03-19T05:09:23;4.20;;;3.80;;
14984;SDS011;7588;62.368;25.902;2023-03-19T05:11:50;4.47;;;4.07;;
14984;SDS011;7588;62.368;25.902;2023-03-19T05:14:15;4.10;;;3.70;;
14984;SDS011;7588;62.368;25.902;2023-03-19T05:16:41;4.27;;;3.87;;
14984;SDS011;7588;62.368;25.902;2023-03-19T05:19:07;3.97;;;3.60;;
14984;SDS011;7588;62.368;25.902;2023-03-19T05:21:32;3.83;;;3.53;;
14984;SDS011;7588;62.368;25.902;2023-03-19T05:23:58;3.67;;;3.37;;
14984;SDS011;7588;62.368;25.902;2023-03-19T05:26:24;4.20;;;3.90;;
14984;SDS011;7588;62.368;25.902;2023-03-19T05:28:50;4.37;;;3.97;;
14984;SDS011;7588;62.368;25.902;2023-03-19T05:31:16;3.90;;;3.60;;
14984;SDS011;7588;62.368;25.902;2023-03-19T05:33:41;3.63;;;3.40;;
14984;SDS011;7588;62.368;25.902;2023-03-19T05:36:07;3.97;;;3.60;;
14984;SDS011;7588;62.368;25.902;2023-03-19T05:38:33;4.47;;;4.07;;
14984;SDS011;7588;62.368;25.902;2023-03-19T05:41:03;4.23;;;3.80;;
14984;SDS011;7588;62.368;25.902;2023-03-19T05:43:29;4.30;;;4.00;;
14984;SDS011;7588;62.368;25.902;2023-03-19T05:45:55;4.30;;;3.93;;
14984;SDS011;7588;62.368;25.902;2023-03-19T05:48:21;4.70;;;4.30;;
14984;SDS011;7588;62.368;25.902;2023-03-19T05:50:47;4.87;;;4.30;;
14984;SDS011;7588;62.368;25.902;2023-03-19T05:53:13;5.20;;;4.70;;
14984;SDS011;7588;62.368;25.902;2023-03-19T05:55:39;4.67;;;4.03;;
14984;SDS011;7588;62.368;25.902;2023-03-19T05:58:04;4.90;;;4.50;;
14984;SDS011;7588;62.368;25.902;2023-03-19T06:00:31;4.90;;;4.50;;
14984;SDS011;7588;62.368;25.902;2023-03-19T06:02:57;8.73;;;4.73;;
14984;SDS011;7588;62.368;25.902;2023-03-19T06:05:23;3.73;;;3.43;;
14984;SDS011;7588;62.368;25.902;2023-03-19T06:07:49;4.00;;;3.70;;
14984;SDS011;7588;62.368;25.902;2023-03-19T06:10:15;4.37;;;3.80;;
14984;SDS011;7588;62.368;25.902;2023-03-19T06:12:40;5.00;;;4.50;;
14984;SDS011;7588;62.368;25.902;2023-03-19T06:15:06;4.40;;;4.00;;
14984;SDS011;7588;62.368;25.902;2023-03-19T06:17:33;4.10;;;3.70;;
14984;SDS011;7588;62.368;25.902;2023-03-19T06:19:59;3.83;;;3.40;;
14984;SDS011;7588;62.368;25.902;2023-03-19T06:22:25;3.63;;;3.40;;
14984;SDS011;7588;62.368;25.902;2023-03-19T06:24:51;3.87;;;3.63;;
14984;SDS011;7588;62.368;25.902;2023-03-19T06:27:17;3.97;;;3.10;;
14984;SDS011;7588;62.368;25.902;2023-03-19T06:29:42;3.20;;;3.00;;
14984;SDS011;7588;62.368;25.902;2023-03-19T06:32:08;3.13;;;2.93;;
14984;SDS011;7588;62.368;25.902;2023-03-19T06:34:34;3.20;;;3.00;;
14984;SDS011;7588;62.368;25.902;2023-03-19T06:37:00;3.10;;;2.80;;
14984;SDS011;7588;62.368;25.902;2023-03-19T06:39:26;2.93;;;2.73;;
14984;SDS011;7588;62.368;25.902;2023-03-19T06:41:52;3.30;;;3.10;;
14984;SDS011;7588;62.368;25.902;2023-03-19T06:44:18;2.90;;;2.60;;
14984;SDS011;7588;62.368;25.902;2023-03-19T06:46:44;3.23;;;2.80;;
14984;SDS011;7588;62.368;25.902;2023-03-19T06:49:10;3.00;;;2.80;;
14984;SDS011;7588;62.368;25.902;2023-03-19T06:51:35;3.00;;;2.80;;
14984;SDS011;7588;62.368;25.902;2023-03-19T06:54:01;3.13;;;2.90;;
14984;SDS011;7588;62.368;25.902;2023-03-19T06:56:27;3.20;;;2.90;;
14984;SDS011;7588;62.368;25.902;2023-03-19T06:58:53;2.80;;;2.60;;
14984;SDS011;7588;62.368;25.902;2023-03-19T07:01:19;2.80;;;2.60;;
14984;SDS011;7588;62.368;25.902;2023-03-19T07:03:45;2.80;;;2.60;;
14984;SDS011;7588;62.368;25.902;2023-03-19T07:06:11;3.00;;;2.77;;
14984;SDS011;7588;62.368;25.902;2023-03-19T07:08:37;2.70;;;2.53;;
14984;SDS011;7588;62.368;25.902;2023-03-19T07:11:05;3.00;;;2.80;;
14984;SDS011;7588;62.368;25.902;2023-03-19T07:13:32;3.00;;;2.80;;
14984;SDS011;7588;62.368;25.902;2023-03-19T07:15:58;2.90;;;2.70;;
14984;SDS011;7588;62.368;25.902;2023-03-19T07:18:24;2.70;;;2.50;;
14984;SDS011;7588;62.368;25.902;2023-03-19T07:20:50;3.13;;;2.83;;
14984;SDS011;7588;62.368;25.902;2023-03-19T07:23:20;2.80;;;2.33;;
14984;SDS011;7588;62.368;25.902;2023-03-19T07:25:46;2.80;;;2.60;;
14984;SDS011;7588;62.368;25.902;2023-03-19T07:28:11;3.07;;;2.77;;
14984;SDS011;7588;62.368;25.902;2023-03-19T07:30:38;2.33;;;2.13;;
14984;SDS011;7588;62.368;25.902;2023-03-19T07:33:04;2.13;;;2.03;;
14984;SDS011;7588;62.368;25.902;2023-03-19T07:35:31;2.80;;;2.60;;
14984;SDS011;7588;62.368;25.902;2023-03-19T07:37:57;3.10;;;2.87;;
14984;SDS011;7588;62.368;25.902;2023-03-19T07:40:24;2.67;;;2.50;;
14984;SDS011;7588;62.368;25.902;2023-03-19T07:42:50;2.80;;;2.60;;
14984;SDS011;7588;62.368;25.902;2023-03-19T07:45:16;3.07;;;2.80;;
14984;SDS011;7588;62.368;25.902;2023-03-19T07:47:42;2.80;;;2.60;;
14984;SDS011;7588;62.368;25.902;2023-03-19T07:50:08;2.30;;;2.10;;
14984;SDS011;7588;62.368;25.902;2023-03-19T07:52:34;2.80;;;2.60;;
14984;SDS011;7588;62.368;25.902;2023-03-19T07:55:00;2.40;;;2.20;;
14984;SDS011;7588;62.368;25.902;2023-03-19T07:57:26;2.20;;;2.10;;
14984;SDS011;7588;62.368;25.902;2023-03-19T07:59:51;2.50;;;2.30;;
14984;SDS011;7588;62.368;25.902;2023-03-19T08:02:18;2.57;;;2.40;;
14984;SDS011;7588;62.368;25.902;2023-03-19T08:04:43;2.50;;;2.30;;
14984;SDS011;7588;62.368;25.902;2023-03-19T08:07:09;2.80;;;2.50;;
14984;SDS011;7588;62.368;25.902;2023-03-19T08:09:36;2.60;;;2.40;;
14984;SDS011;7588;62.368;25.902;2023-03-19T08:12:03;2.17;;;2.07;;
14984;SDS011;7588;62.368;25.902;2023-03-19T08:14:30;2.87;;;2.67;;
14984;SDS011;7588;62.368;25.902;2023-03-19T08:16:56;2.87;;;2.67;;
14984;SDS011;7588;62.368;25.902;2023-03-19T08:19:22;2.03;;;1.93;;
14984;SDS011;7588;62.368;25.902;2023-03-19T08:21:48;2.40;;;2.30;;
14984;SDS011;7588;62.368;25.902;2023-03-19T08:24:13;2.67;;;2.47;;
14984;SDS011;7588;62.368;25.902;2023-03-19T08:26:39;2.40;;;2.30;;
14984;SDS011;7588;62.368;25.902;2023-03-19T08:29:05;2.43;;;2.23;;
14984;SDS011;7588;62.368;25.902;2023-03-19T08:31:31;2.87;;;2.67;;
14984;SDS011;7588;62.368;25.902;2023-03-19T08:33:56;4.80;;;3.80;;
14984;SDS011;7588;62.368;25.902;2023-03-19T08:36:26;3.20;;;2.97;;
14984;SDS011;7588;62.368;25.902;2023-03-19T08:38:52;2.80;;;2.60;;
14984;SDS011;7588;62.368;25.902;2023-03-19T08:41:19;2.83;;;2.63;;
14984;SDS011;7588;62.368;25.902;2023-03-19T08:43:45;2.40;;;2.20;;
14984;SDS011;7588;62.368;25.902;2023-03-19T08:46:11;3.07;;;2.40;;
14984;SDS011;7588;62.368;25.902;2023-03-19T08:48:37;2.53;;;2.33;;
14984;SDS011;7588;62.368;25.902;2023-03-19T08:51:03;2.00;;;1.90;;
14984;SDS011;7588;62.368;25.902;2023-03-19T08:53:29;2.63;;;2.40;;
14984;SDS011;7588;62.368;25.902;2023-03-19T08:55:57;2.57;;;2.37;;
14984;SDS011;7588;62.368;25.902;2023-03-19T08:58:24;2.20;;;2.10;;
14984;SDS011;7588;62.368;25.902;2023-03-19T09:00:51;2.40;;;2.20;;
14984;SDS011;7588;62.368;25.902;2023-03-19T09:03:17;2.13;;;1.97;;
14984;SDS011;7588;62.368;25.902;2023-03-19T09:05:45;3.40;;;2.20;;
14984;SDS011;7588;62.368;25.902;2023-03-19T09:08:11;2.77;;;2.57;;
14984;SDS011;7588;62.368;25.902;2023-03-19T09:10:37;2.33;;;2.23;;
14984;SDS011;7588;62.368;25.902;2023-03-19T09:13:03;2.60;;;2.50;;
14984;SDS011;7588;62.368;25.902;2023-03-19T09:15:29;2.50;;;2.30;;
14984;SDS011;7588;62.368;25.902;2023-03-19T09:17:55;2.10;;;2.00;;
14984;SDS011;7588;62.368;25.902;2023-03-19T09:20:21;2.70;;;2.53;;
14984;SDS011;7588;62.368;25.902;2023-03-19T09:22:47;2.37;;;2.27;;
14984;SDS011;7588;62.368;25.902;2023-03-19T09:25:12;2.50;;;2.40;;
14984;SDS011;7588;62.368;25.902;2023-03-19T09:27:38;2.33;;;2.23;;
14984;SDS011;7588;62.368;25.902;2023-03-19T09:30:04;2.67;;;2.50;;
14984;SDS011;7588;62.368;25.902;2023-03-19T09:32:33;2.60;;;2.40;;
14984;SDS011;7588;62.368;25.902;2023-03-19T09:34:59;2.57;;;2.40;;
14984;SDS011;7588;62.368;25.902;2023-03-19T09:37:25;3.40;;;2.13;;
14984;SDS011;7588;62.368;25.902;2023-03-19T09:39:51;2.67;;;2.30;;
14984;SDS011;7588;62.368;25.902;2023-03-19T09:45:16;1.90;;;1.80;;
14984;SDS011;7588;62.368;25.902;2023-03-19T09:47:43;2.40;;;2.20;;
14984;SDS011;7588;62.368;25.902;2023-03-19T09:50:12;2.33;;;2.17;;
14984;SDS011;7588;62.368;25.902;2023-03-19T09:57:41;2.93;;;2.73;;
14984;SDS011;7588;62.368;25.902;2023-03-19T10:00:11;3.03;;;2.60;;
14984;SDS011;7588;62.368;25.902;2023-03-19T10:02:43;2.20;;;2.10;;
14984;SDS011;7588;62.368;25.902;2023-03-19T10:05:24;2.50;;;2.33;;
14984;SDS011;7588;62.368;25.902;2023-03-19T10:16:03;2.10;;;2.00;;
14984;SDS011;7588;62.368;25.902;2023-03-19T10:18:31;2.80;;;2.27;;
14984;SDS011;7588;62.368;25.902;2023-03-19T10:26:18;2.30;;;2.20;;
14984;SDS011;7588;62.368;25.902;2023-03-19T10:28:51;2.53;;;2.33;;
14984;SDS011;7588;62.368;25.902;2023-03-19T10:34:28;3.30;;;3.10;;
14984;SDS011;7588;62.368;25.902;2023-03-19T10:37:12;2.03;;;1.93;;
14984;SDS011;7588;62.368;25.902;2023-03-19T10:39:45;2.53;;;2.40;;
14984;SDS011;7588;62.368;25.902;2023-03-19T10:47:38;2.60;;;2.40;;
14984;SDS011;7588;62.368;25.902;2023-03-19T10:50:05;2.40;;;2.20;;
14984;SDS011;7588;62.368;25.902;2023-03-19T10:52:35;3.37;;;3.17;;
14984;SDS011;7588;62.368;25.902;2023-03-19T10:57:31;2.00;;;1.90;;
14984;SDS011;7588;62.368;25.902;2023-03-19T11:00:13;2.17;;;2.07;;
14984;SDS011;7588;62.368;25.902;2023-03-19T11:02:53;2.50;;;2.30;;
14984;SDS011;7588;62.368;25.902;2023-03-19T11:10:32;2.10;;;2.00;;
14984;SDS011;7588;62.368;25.902;2023-03-19T11:13:14;2.07;;;1.93;;
14984;SDS011;7588;62.368;25.902;2023-03-19T11:15:47;2.40;;;2.30;;
14984;SDS011;7588;62.368;25.902;2023-03-19T11:21:13;2.80;;;2.43;;
14984;SDS011;7588;62.368;25.902;2023-03-19T11:23:51;2.30;;;2.20;;
14984;SDS011;7588;62.368;25.902;2023-03-19T11:26:23;2.70;;;2.50;;
14984;SDS011;7588;62.368;25.902;2023-03-19T11:28:52;1.97;;;1.87;;
14984;SDS011;7588;62.368;25.902;2023-03-19T11:34:24;2.10;;;2.00;;
14984;SDS011;7588;62.368;25.902;2023-03-19T11:39:53;1.90;;;1.80;;
14984;SDS011;7588;62.368;25.902;2023-03-19T11:45:32;2.33;;;2.13;;
14984;SDS011;7588;62.368;25.902;2023-03-19T11:48:28;2.10;;;2.00;;
14984;SDS011;7588;62.368;25.902;2023-03-19T11:51:24;2.10;;;2.00;;
14984;SDS011;7588;62.368;25.902;2023-03-19T12:05:07;2.23;;;2.13;;
14984;SDS011;7588;62.368;25.902;2023-03-19T12:10:33;1.83;;;1.73;;
14984;SDS011;7588;62.368;25.902;2023-03-19T12:16:01;2.17;;;2.07;;
14984;SDS011;7588;62.368;25.902;2023-03-19T12:26:17;1.80;;;1.70;;
14984;SDS011;7588;62.368;25.902;2023-03-19T12:28:58;2.07;;;1.87;;
14984;SDS011;7588;62.368;25.902;2023-03-19T12:31:55;1.70;;;1.60;;
14984;SDS011;7588;62.368;25.902;2023-03-19T12:36:53;2.10;;;2.00;;
14984;SDS011;7588;62.368;25.902;2023-03-19T12:39:31;2.30;;;2.07;;
14984;SDS011;7588;62.368;25.902;2023-03-19T12:42:01;2.10;;;2.00;;
14984;SDS011;7588;62.368;25.902;2023-03-19T12:44:33;2.40;;;2.23;;
14984;SDS011;7588;62.368;25.902;2023-03-19T12:54:59;2.07;;;1.97;;
14984;SDS011;7588;62.368;25.902;2023-03-19T13:05:24;1.80;;;1.70;;
14984;SDS011;7588;62.368;25.902;2023-03-19T13:08:03;1.90;;;1.80;;
14984;SDS011;7588;62.368;25.902;2023-03-19T13:10:37;2.20;;;2.10;;
14984;SDS011;7588;62.368;25.902;2023-03-19T13:13:13;2.20;;;2.10;;
14984;SDS011;7588;62.368;25.902;2023-03-19T13:15:50;2.30;;;2.17;;
14984;SDS011;7588;62.368;25.902;2023-03-19T13:18:28;2.30;;;2.20;;
14984;SDS011;7588;62.368;25.902;2023-03-19T13:23:46;2.30;;;2.10;;
14984;SDS011;7588;62.368;25.902;2023-03-19T13:26:15;2.00;;;1.90;;
14984;SDS011;7588;62.368;25.902;2023-03-19T13:31:46;2.60;;;2.40;;
14984;SDS011;7588;62.368;25.902;2023-03-19T13:36:41;2.00;;;1.90;;
14984;SDS011;7588;62.368;25.902;2023-03-19T13:39:12;2.20;;;2.10;;
14984;SDS011;7588;62.368;25.902;2023-03-19T13:44:27;2.10;;;2.00;;
14984;SDS011;7588;62.368;25.902;2023-03-19T13:46:59;2.30;;;2.20;;
14984;SDS011;7588;62.368;25.902;2023-03-19T13:52:38;2.10;;;2.00;;
14984;SDS011;7588;62.368;25.902;2023-03-19T13:57:57;2.17;;;2.07;;
14984;SDS011;7588;62.368;25.902;2023-03-19T14:03:27;2.33;;;2.17;;
14984;SDS011;7588;62.368;25.902;2023-03-19T14:05:56;2.23;;;2.13;;
14984;SDS011;7588;62.368;25.902;2023-03-19T14:08:27;2.50;;;2.30;;
14984;SDS011;7588;62.368;25.902;2023-03-19T14:10:57;2.47;;;2.37;;
14984;SDS011;7588;62.368;25.902;2023-03-19T14:13:27;2.30;;;2.20;;
14984;SDS011;7588;62.368;25.902;2023-03-19T14:16:15;2.20;;;2.10;;
14984;SDS011;7588;62.368;25.902;2023-03-19T14:18:41;2.67;;;2.20;;
14984;SDS011;7588;62.368;25.902;2023-03-19T14:21:15;2.37;;;2.27;;
14984;SDS011;7588;62.368;25.902;2023-03-19T14:23:55;2.70;;;2.53;;
14984;SDS011;7588;62.368;25.902;2023-03-19T14:27:01;2.27;;;2.17;;
14984;SDS011;7588;62.368;25.902;2023-03-19T14:29:36;2.20;;;2.10;;
14984;SDS011;7588;62.368;25.902;2023-03-19T14:32:08;2.10;;;2.00;;
14984;SDS011;7588;62.368;25.902;2023-03-19T14:34:42;2.50;;;2.30;;
14984;SDS011;7588;62.368;25.902;2023-03-19T14:40:14;2.33;;;2.20;;
14984;SDS011;7588;62.368;25.902;2023-03-19T14:56:47;2.77;;;2.57;;
14984;SDS011;7588;62.368;25.902;2023-03-19T14:59:14;3.13;;;2.93;;
14984;SDS011;7588;62.368;25.902;2023-03-19T15:01:47;3.60;;;3.30;;
14984;SDS011;7588;62.368;25.902;2023-03-19T15:04:15;5.30;;;4.80;;
14984;SDS011;7588;62.368;25.902;2023-03-19T15:06:54;4.47;;;4.07;;
14984;SDS011;7588;62.368;25.902;2023-03-19T15:12:09;3.73;;;3.43;;
14984;SDS011;7588;62.368;25.902;2023-03-19T15:15:18;3.27;;;3.07;;
14984;SDS011;7588;62.368;25.902;2023-03-19T15:18:08;2.70;;;2.50;;
14984;SDS011;7588;62.368;25.902;2023-03-19T15:20:37;2.70;;;2.50;;
14984;SDS011;7588;62.368;25.902;2023-03-19T15:23:08;2.23;;;2.13;;
14984;SDS011;7588;62.368;25.902;2023-03-19T15:25:49;2.60;;;2.40;;
14984;SDS011;7588;62.368;25.902;2023-03-19T15:28:25;2.83;;;2.63;;
14984;SDS011;7588;62.368;25.902;2023-03-19T15:31:01;2.70;;;2.50;;
14984;SDS011;7588;62.368;25.902;2023-03-19T15:33:33;2.87;;;2.67;;
14984;SDS011;7588;62.368;25.902;2023-03-19T15:38:46;3.07;;;2.87;;
14984;SDS011;7588;62.368;25.902;2023-03-19T15:41:19;3.67;;;3.37;;
14984;SDS011;7588;62.368;25.902;2023-03-19T15:43:48;2.50;;;2.33;;
14984;SDS011;7588;62.368;25.902;2023-03-19T15:46:14;2.37;;;2.27;;
14984;SDS011;7588;62.368;25.902;2023-03-19T15:48:45;2.70;;;2.60;;
14984;SDS011;7588;62.368;25.902;2023-03-19T15:51:30;3.70;;;3.50;;
14984;SDS011;7588;62.368;25.902;2023-03-19T15:53:57;4.80;;;4.50;;
14984;SDS011;7588;62.368;25.902;2023-03-19T15:56:24;3.20;;;3.00;;
14984;SDS011;7588;62.368;25.902;2023-03-19T15:58:51;3.33;;;3.03;;
14984;SDS011;7588;62.368;25.902;2023-03-19T16:01:20;3.43;;;3.13;;
14984;SDS011;7588;62.368;25.902;2023-03-19T16:03:58;3.70;;;3.40;;
14984;SDS011;7588;62.368;25.902;2023-03-19T16:06:27;3.53;;;3.23;;
14984;SDS011;7588;62.368;25.902;2023-03-19T16:08:55;4.23;;;3.00;;
14984;SDS011;7588;62.368;25.902;2023-03-19T16:11:37;3.10;;;2.90;;
14984;SDS011;7588;62.368;25.902;2023-03-19T16:16:49;4.50;;;4.13;;
14984;SDS011;7588;62.368;25.902;2023-03-19T16:19:31;4.83;;;4.43;;
14984;SDS011;7588;62.368;25.902;2023-03-19T16:22:10;4.23;;;3.93;;
14984;SDS011;7588;62.368;25.902;2023-03-19T16:24:39;4.57;;;4.00;;
14984;SDS011;7588;62.368;25.902;2023-03-19T16:27:11;5.10;;;4.60;;
14984;SDS011;7588;62.368;25.902;2023-03-19T16:29:39;5.80;;;5.20;;
14984;SDS011;7588;62.368;25.902;2023-03-19T16:34:44;11.17;;;8.83;;
14984;SDS011;7588;62.368;25.902;2023-03-19T16:42:53;15.60;;;11.87;;
14984;SDS011;7588;62.368;25.902;2023-03-19T16:45:31;16.40;;;11.57;;
14984;SDS011;7588;62.368;25.902;2023-03-19T16:47:59;16.77;;;11.87;;
14984;SDS011;7588;62.368;25.902;2023-03-19T16:50:34;18.33;;;11.97;;
14984;SDS011;7588;62.368;25.902;2023-03-19T16:53:02;17.77;;;12.30;;
14984;SDS011;7588;62.368;25.902;2023-03-19T16:55:35;17.47;;;11.67;;
14984;SDS011;7588;62.368;25.902;2023-03-19T16:58:01;15.87;;;10.87;;
14984;SDS011;7588;62.368;25.902;2023-03-19T17:00:32;14.13;;;10.20;;
14984;SDS011;7588;62.368;25.902;2023-03-19T17:02:58;15.03;;;11.17;;
14984;SDS011;7588;62.368;25.902;2023-03-19T17:05:25;14.73;;;10.37;;
14984;SDS011;7588;62.368;25.902;2023-03-19T17:07:52;8.00;;;5.67;;
14984;SDS011;7588;62.368;25.902;2023-03-19T17:10:22;10.10;;;7.20;;
14984;SDS011;7588;62.368;25.902;2023-03-19T17:12:51;9.83;;;7.60;;
14984;SDS011;7588;62.368;25.902;2023-03-19T17:15:21;8.27;;;7.00;;
14984;SDS011;7588;62.368;25.902;2023-03-19T17:17:48;9.23;;;7.30;;
14984;SDS011;7588;62.368;25.902;2023-03-19T17:20:15;7.47;;;6.67;;
14984;SDS011;7588;62.368;25.902;2023-03-19T17:22:44;7.30;;;6.60;;
14984;SDS011;7588;62.368;25.902;2023-03-19T17:25:13;7.03;;;6.03;;